MiSS Sarah — WDE9595 — position and weather

sailwx.info

Track history (hours):
 
Tides and Currents Weather Stations Pressure Air Temp Water Temp Dewpoint Dewpoint Depression Visibility Wind Speed Wind Dir Waves Ship Positions

MiSS Sarah

More information available from US FCC via Universal Licensing System and Coast Guard Vessel Documentation Center.

Last reported at 2014-Aug-29 22:27 UTC. Time now 2014-Sep-01 18:49 UTC.
Position N 29°32' W 090°51'.

Length 24 m; draft 2.6 m.

Type: Towing. MMSI: 367419040.

Date/timePositionNaut miles runAvg speedWind from/ knotsBaromVisibWave heightAir tempDewpointWater temp
2014-Aug-29 22:27N 29°32' W 090°51'5 5.3
2014-Aug-29 21:33N 29°34' W 090°56'5 4.9
2014-Aug-29 20:33N 29°37' W 090°60'5 4.7
2014-Aug-29 19:33N 29°38' W 091°05'4 3.7
2014-Aug-29 18:33N 29°41' W 091°08'1 1.3
2014-Aug-29 17:33N 29°41' W 091°10'0 0.0
2014-Aug-29 16:33N 29°41' W 091°10'0 0.0
2014-Aug-29 15:33N 29°41' W 091°10'2 1.6
2014-Aug-29 14:33N 29°41' W 091°12'4 4.3
2014-Aug-29 13:33N 29°39' W 091°16'3 3.5
2014-Aug-29 12:33N 29°38' W 091°20'3 2.5
2014-Aug-29 11:33N 29°39' W 091°23'3 2.8
2014-Aug-29 10:33N 29°40' W 091°26'4 3.4
2014-Aug-29 09:28N 29°41' W 091°30'3 3.7
2014-Aug-29 08:33N 29°43' W 091°33'4 3.8
2014-Aug-29 07:33N 29°46' W 091°36'5 4.5
2014-Aug-29 06:31N 29°46' W 091°42'162 3.2
2014-Aug-27 03:14N 29°23' W 094°46'3 3.5
2014-Aug-27 02:29N 29°24' W 094°49'5 5.3
2014-Aug-27 01:29N 29°29' W 094°52'5 5.0
2014-Aug-27 00:33N 29°33' W 094°54'5 5.5
2014-Aug-26 23:33N 29°37' W 094°58'6 5.6
2014-Aug-26 22:33N 29°42' W 095°01'5 4.9
2014-Aug-26 21:31N 29°46' W 095°05'1 1.3
2014-Aug-26 20:29N 29°46' W 095°07'0 0.0
2014-Aug-26 19:27N 29°46' W 095°07'3 3.7
2014-Aug-26 18:33N 29°44' W 095°03'2 2.1
2014-Aug-26 17:33N 29°43' W 095°01'0 0.0
2014-Aug-26 16:33N 29°43' W 095°01'0 0.0
2014-Aug-26 15:33N 29°43' W 095°01'0 0.5
2014-Aug-26 14:33N 29°44' W 095°01'0 0.2
2014-Aug-26 13:33N 29°44' W 095°01'0 0.0
2014-Aug-26 12:33N 29°44' W 095°01'0 0.0
2014-Aug-26 11:32N 29°44' W 095°01'0 0.0
2014-Aug-26 10:33N 29°44' W 095°01'0 0.0
2014-Aug-26 09:30N 29°44' W 095°01'0 0.0
2014-Aug-26 08:29N 29°44' W 095°01'0 0.0
2014-Aug-26 07:33N 29°44' W 095°01'0 0.0
2014-Aug-26 06:33N 29°44' W 095°01'0 0.0
2014-Aug-26 05:33N 29°44' W 095°01'0 0.0
2014-Aug-26 04:32N 29°44' W 095°01'0 0.0
2014-Aug-26 03:33N 29°44' W 095°01'4 0.3
2014-Aug-25 14:33N 29°45' W 095°06'1 1.1
2014-Aug-25 13:32N 29°46' W 095°07'0 0.0
2014-Aug-25 12:32N 29°46' W 095°07'0 0.0
2014-Aug-25 11:32N 29°46' W 095°07'0 0.0
2014-Aug-25 10:33N 29°46' W 095°07'0 0.0
2014-Aug-25 09:33N 29°46' W 095°07'0 0.0
2014-Aug-25 08:33N 29°46' W 095°07'0 0.0
2014-Aug-25 07:32N 29°46' W 095°07'0 0.0
2014-Aug-25 06:32N 29°46' W 095°07'0 0.0
2014-Aug-25 05:33N 29°46' W 095°07'0 0.0
2014-Aug-25 04:33N 29°46' W 095°07'0 0.0
2014-Aug-25 03:27N 29°46' W 095°07'0 0.0
2014-Aug-25 02:33N 29°46' W 095°07'0 0.0
2014-Aug-25 01:33N 29°46' W 095°07'0 0.0
2014-Aug-25 00:27N 29°46' W 095°07'0 0.0
2014-Aug-24 23:04N 29°46' W 095°07'0 0.0
2014-Aug-24 21:33N 29°46' W 095°07'0 0.0
2014-Aug-24 20:33N 29°46' W 095°07'0 0.0
2014-Aug-24 19:33N 29°46' W 095°07'0 0.0
2014-Aug-24 18:33N 29°46' W 095°07'0 0.0
2014-Aug-24 17:33N 29°46' W 095°07'0 0.0
2014-Aug-24 16:33N 29°46' W 095°07'0 0.0
2014-Aug-24 15:33N 29°46' W 095°07'0 0.0
2014-Aug-24 14:33N 29°46' W 095°07'0 0.0
2014-Aug-24 13:33N 29°46' W 095°07'0 0.0
2014-Aug-24 12:33N 29°46' W 095°07'0 0.0
2014-Aug-24 11:33N 29°46' W 095°07'0 0.0
2014-Aug-24 10:33N 29°46' W 095°07'0 0.0
2014-Aug-24 09:33N 29°46' W 095°07'0 0.0
2014-Aug-24 08:33N 29°46' W 095°07'0 0.0
2014-Aug-24 07:33N 29°46' W 095°07'0 0.0
2014-Aug-24 06:33N 29°46' W 095°07'0 0.0
2014-Aug-24 05:33N 29°46' W 095°07'0 0.0
2014-Aug-24 04:33N 29°46' W 095°07'0 0.0
2014-Aug-24 03:33N 29°46' W 095°07'0 0.0
2014-Aug-24 02:33N 29°46' W 095°07'0 0.0
2014-Aug-24 01:33N 29°46' W 095°07'0 0.0
2014-Aug-24 00:33N 29°46' W 095°07'0 0.0
2014-Aug-23 23:33N 29°46' W 095°07'0 0.0
2014-Aug-23 22:33N 29°46' W 095°07'0 0.0
2014-Aug-23 21:33N 29°46' W 095°07'0 0.0
2014-Aug-23 20:33N 29°46' W 095°07'0 0.0
2014-Aug-23 19:33N 29°46' W 095°07'0 0.0
2014-Aug-23 03:33N 29°46' W 095°07'0 0.0
2014-Aug-23 02:33N 29°46' W 095°07'0 0.0
2014-Aug-23 01:33N 29°46' W 095°07'0 0.0
2014-Aug-23 00:33N 29°46' W 095°07'0 0.0
2014-Aug-22 23:33N 29°46' W 095°07'0 0.0
2014-Aug-22 22:33N 29°46' W 095°07'0 0.0
2014-Aug-22 21:33N 29°46' W 095°07'0 0.0
2014-Aug-22 20:33N 29°46' W 095°07'0 0.0
2014-Aug-22 19:33N 29°46' W 095°07'1 1.4
2014-Aug-22 18:33N 29°46' W 095°05'1 0.9
2014-Aug-22 17:33N 29°47' W 095°05'0 0.0
2014-Aug-22 16:33N 29°47' W 095°05'0 0.0
2014-Aug-22 15:33N 29°47' W 095°05'0 0.0
2014-Aug-22 14:33N 29°47' W 095°05'0 0.0
2014-Aug-22 13:33N 29°47' W 095°05'0 0.0
2014-Aug-22 12:33N 29°47' W 095°05'0 0.0
2014-Aug-22 11:33N 29°47' W 095°05'0 0.0
2014-Aug-22 10:33N 29°47' W 095°05'0 0.0
2014-Aug-22 09:33N 29°47' W 095°05'0 0.0
2014-Aug-22 08:33N 29°47' W 095°05'0 0.0
2014-Aug-22 07:33N 29°47' W 095°05'2 2.3
2014-Aug-22 06:33N 29°45' W 095°06'0 0.0
2014-Aug-22 05:33N 29°45' W 095°06'0 0.0
2014-Aug-22 04:33N 29°45' W 095°06'0 0.0
2014-Aug-22 03:33N 29°45' W 095°06'0 0.0
2014-Aug-22 02:33N 29°45' W 095°06'0 0.0
2014-Aug-22 01:33N 29°45' W 095°06'0 0.0
2014-Aug-22 00:33N 29°45' W 095°06'0 0.0
2014-Aug-21 23:33N 29°45' W 095°06'0 0.0
2014-Aug-21 22:32N 29°45' W 095°06'0 0.0
2014-Aug-21 21:33N 29°45' W 095°06'0 0.0
2014-Aug-21 20:33N 29°45' W 095°06'0 0.0
2014-Aug-21 19:33N 29°45' W 095°06'0 0.0
2014-Aug-21 18:33N 29°45' W 095°06'0 0.0
2014-Aug-21 17:32N 29°45' W 095°06'0 0.0
2014-Aug-21 16:32N 29°45' W 095°06'0 0.0
2014-Aug-21 15:32N 29°45' W 095°06'0 0.0
2014-Aug-21 14:33N 29°45' W 095°06'0 0.0
2014-Aug-21 13:32N 29°45' W 095°06'0 0.0
2014-Aug-21 12:33N 29°45' W 095°06'0 0.0
2014-Aug-21 11:33N 29°45' W 095°06'1 0.7
2014-Aug-21 10:33N 29°45' W 095°06'1 1.0
2014-Aug-21 09:33N 29°46' W 095°07'0 0.1
2014-Aug-21 08:33N 29°46' W 095°07'0 0.0
2014-Aug-21 07:33N 29°46' W 095°07'0 0.0
2014-Aug-21 06:33N 29°46' W 095°07'0 0.0
2014-Aug-21 05:33N 29°46' W 095°07'0 0.0
2014-Aug-21 04:33N 29°46' W 095°07'0 0.0
2014-Aug-21 03:33N 29°46' W 095°07'0 0.0
2014-Aug-21 02:33N 29°46' W 095°07'0 0.0
2014-Aug-21 01:33N 29°46' W 095°07'0 0.0
2014-Aug-21 00:33N 29°46' W 095°07'0 0.0
2014-Aug-20 23:33N 29°46' W 095°07'0 0.0
2014-Aug-20 22:33N 29°46' W 095°07'0 0.0
2014-Aug-20 21:33N 29°46' W 095°07'0 0.0
2014-Aug-20 20:33N 29°46' W 095°07'1 1.2
2014-Aug-20 19:33N 29°45' W 095°07'1 1.2
2014-Aug-20 18:33N 29°46' W 095°07'0 0.0
2014-Aug-20 17:33N 29°46' W 095°07'0 0.0
2014-Aug-20 16:33N 29°46' W 095°07'1 1.1
2014-Aug-20 15:33N 29°46' W 095°05'2 2.2
2014-Aug-20 14:33N 29°48' W 095°04'0 0.0
2014-Aug-20 13:33N 29°48' W 095°04'0 0.0
2014-Aug-20 12:33N 29°48' W 095°04'0 0.0
2014-Aug-20 11:33N 29°48' W 095°04'0 0.0
2014-Aug-20 10:33N 29°48' W 095°04'0 0.0
2014-Aug-20 09:33N 29°48' W 095°04'0 0.0
2014-Aug-20 08:33N 29°48' W 095°04'0 0.0
2014-Aug-20 07:33N 29°48' W 095°04'0 0.0
2014-Aug-20 06:33N 29°48' W 095°04'0 0.0
2014-Aug-20 05:33N 29°48' W 095°04'0 0.0
2014-Aug-20 04:33N 29°48' W 095°04'0 0.0
2014-Aug-20 03:33N 29°48' W 095°04'0 0.0
2014-Aug-20 02:33N 29°48' W 095°04'0 0.0
2014-Aug-20 00:33N 29°48' W 095°04'0 0.0
2014-Aug-19 23:33N 29°48' W 095°04'0 0.0
2014-Aug-19 22:33N 29°48' W 095°04'  
Track history (hours):
 
Tides and Currents Weather Stations Pressure Air Temp Water Temp Dewpoint Dewpoint Depression Visibility Wind Speed Wind Dir Waves Ship Positions

MiSS Sarah

More information available from US FCC via Universal Licensing System and Coast Guard Vessel Documentation Center.

Last reported at 2014-Aug-29 22:27 UTC. Time now 2014-Sep-01 18:49 UTC.
Position N 29°32' W 090°51'.

Length 24 m; draft 2.6 m.

Type: Towing. MMSI: 367419040.

Date/timePositionNaut miles runAvg speedWind from/ knotsBaromVisibWave heightAir tempDewpointWater temp
2014-Aug-29 22:27N 29°32' W 090°51'5 5.3
2014-Aug-29 21:33N 29°34' W 090°56'5 4.9
2014-Aug-29 20:33N 29°37' W 090°60'5 4.7
2014-Aug-29 19:33N 29°38' W 091°05'4 3.7
2014-Aug-29 18:33N 29°41' W 091°08'1 1.3
2014-Aug-29 17:33N 29°41' W 091°10'0 0.0
2014-Aug-29 16:33N 29°41' W 091°10'0 0.0
2014-Aug-29 15:33N 29°41' W 091°10'2 1.6
2014-Aug-29 14:33N 29°41' W 091°12'4 4.3
2014-Aug-29 13:33N 29°39' W 091°16'3 3.5
2014-Aug-29 12:33N 29°38' W 091°20'3 2.5
2014-Aug-29 11:33N 29°39' W 091°23'3 2.8
2014-Aug-29 10:33N 29°40' W 091°26'4 3.4
2014-Aug-29 09:28N 29°41' W 091°30'3 3.7
2014-Aug-29 08:33N 29°43' W 091°33'4 3.8
2014-Aug-29 07:33N 29°46' W 091°36'5 4.5
2014-Aug-29 06:31N 29°46' W 091°42'162 3.2
2014-Aug-27 03:14N 29°23' W 094°46'3 3.5
2014-Aug-27 02:29N 29°24' W 094°49'5 5.3
2014-Aug-27 01:29N 29°29' W 094°52'5 5.0
2014-Aug-27 00:33N 29°33' W 094°54'5 5.5
2014-Aug-26 23:33N 29°37' W 094°58'6 5.6
2014-Aug-26 22:33N 29°42' W 095°01'5 4.9
2014-Aug-26 21:31N 29°46' W 095°05'1 1.3
2014-Aug-26 20:29N 29°46' W 095°07'0 0.0
2014-Aug-26 19:27N 29°46' W 095°07'3 3.7
2014-Aug-26 18:33N 29°44' W 095°03'2 2.1
2014-Aug-26 17:33N 29°43' W 095°01'0 0.0
2014-Aug-26 16:33N 29°43' W 095°01'0 0.0
2014-Aug-26 15:33N 29°43' W 095°01'0 0.5
2014-Aug-26 14:33N 29°44' W 095°01'0 0.2
2014-Aug-26 13:33N 29°44' W 095°01'0 0.0
2014-Aug-26 12:33N 29°44' W 095°01'0 0.0
2014-Aug-26 11:32N 29°44' W 095°01'0 0.0
2014-Aug-26 10:33N 29°44' W 095°01'0 0.0
2014-Aug-26 09:30N 29°44' W 095°01'0 0.0
2014-Aug-26 08:29N 29°44' W 095°01'0 0.0
2014-Aug-26 07:33N 29°44' W 095°01'0 0.0
2014-Aug-26 06:33N 29°44' W 095°01'0 0.0
2014-Aug-26 05:33N 29°44' W 095°01'0 0.0
2014-Aug-26 04:32N 29°44' W 095°01'0 0.0
2014-Aug-26 03:33N 29°44' W 095°01'4 0.3
2014-Aug-25 14:33N 29°45' W 095°06'1 1.1
2014-Aug-25 13:32N 29°46' W 095°07'0 0.0
2014-Aug-25 12:32N 29°46' W 095°07'0 0.0
2014-Aug-25 11:32N 29°46' W 095°07'0 0.0
2014-Aug-25 10:33N 29°46' W 095°07'0 0.0
2014-Aug-25 09:33N 29°46' W 095°07'0 0.0
2014-Aug-25 08:33N 29°46' W 095°07'0 0.0
2014-Aug-25 07:32N 29°46' W 095°07'0 0.0
2014-Aug-25 06:32N 29°46' W 095°07'0 0.0
2014-Aug-25 05:33N 29°46' W 095°07'0 0.0
2014-Aug-25 04:33N 29°46' W 095°07'0 0.0
2014-Aug-25 03:27N 29°46' W 095°07'0 0.0
2014-Aug-25 02:33N 29°46' W 095°07'0 0.0
2014-Aug-25 01:33N 29°46' W 095°07'0 0.0
2014-Aug-25 00:27N 29°46' W 095°07'0 0.0
2014-Aug-24 23:04N 29°46' W 095°07'0 0.0
2014-Aug-24 21:33N 29°46' W 095°07'0 0.0
2014-Aug-24 20:33N 29°46' W 095°07'0 0.0
2014-Aug-24 19:33N 29°46' W 095°07'0 0.0
2014-Aug-24 18:33N 29°46' W 095°07'0 0.0
2014-Aug-24 17:33N 29°46' W 095°07'0 0.0
2014-Aug-24 16:33N 29°46' W 095°07'0 0.0
2014-Aug-24 15:33N 29°46' W 095°07'0 0.0
2014-Aug-24 14:33N 29°46' W 095°07'0 0.0
2014-Aug-24 13:33N 29°46' W 095°07'0 0.0
2014-Aug-24 12:33N 29°46' W 095°07'0 0.0
2014-Aug-24 11:33N 29°46' W 095°07'0 0.0
2014-Aug-24 10:33N 29°46' W 095°07'0 0.0
2014-Aug-24 09:33N 29°46' W 095°07'0 0.0
2014-Aug-24 08:33N 29°46' W 095°07'0 0.0
2014-Aug-24 07:33N 29°46' W 095°07'0 0.0
2014-Aug-24 06:33N 29°46' W 095°07'0 0.0
2014-Aug-24 05:33N 29°46' W 095°07'0 0.0
2014-Aug-24 04:33N 29°46' W 095°07'0 0.0
2014-Aug-24 03:33N 29°46' W 095°07'0 0.0
2014-Aug-24 02:33N 29°46' W 095°07'0 0.0
2014-Aug-24 01:33N 29°46' W 095°07'0 0.0
2014-Aug-24 00:33N 29°46' W 095°07'0 0.0
2014-Aug-23 23:33N 29°46' W 095°07'0 0.0
2014-Aug-23 22:33N 29°46' W 095°07'0 0.0
2014-Aug-23 21:33N 29°46' W 095°07'0 0.0
2014-Aug-23 20:33N 29°46' W 095°07'0 0.0
2014-Aug-23 19:33N 29°46' W 095°07'0 0.0
2014-Aug-23 03:33N 29°46' W 095°07'0 0.0
2014-Aug-23 02:33N 29°46' W 095°07'0 0.0
2014-Aug-23 01:33N 29°46' W 095°07'0 0.0
2014-Aug-23 00:33N 29°46' W 095°07'0 0.0
2014-Aug-22 23:33N 29°46' W 095°07'0 0.0
2014-Aug-22 22:33N 29°46' W 095°07'0 0.0
2014-Aug-22 21:33N 29°46' W 095°07'0 0.0
2014-Aug-22 20:33N 29°46' W 095°07'0 0.0
2014-Aug-22 19:33N 29°46' W 095°07'1 1.4
2014-Aug-22 18:33N 29°46' W 095°05'1 0.9
2014-Aug-22 17:33N 29°47' W 095°05'0 0.0
2014-Aug-22 16:33N 29°47' W 095°05'0 0.0
2014-Aug-22 15:33N 29°47' W 095°05'0 0.0
2014-Aug-22 14:33N 29°47' W 095°05'0 0.0
2014-Aug-22 13:33N 29°47' W 095°05'0 0.0
2014-Aug-22 12:33N 29°47' W 095°05'0 0.0
2014-Aug-22 11:33N 29°47' W 095°05'0 0.0
2014-Aug-22 10:33N 29°47' W 095°05'0 0.0
2014-Aug-22 09:33N 29°47' W 095°05'0 0.0
2014-Aug-22 08:33N 29°47' W 095°05'0 0.0
2014-Aug-22 07:33N 29°47' W 095°05'2 2.3
2014-Aug-22 06:33N 29°45' W 095°06'0 0.0
2014-Aug-22 05:33N 29°45' W 095°06'0 0.0
2014-Aug-22 04:33N 29°45' W 095°06'0 0.0
2014-Aug-22 03:33N 29°45' W 095°06'0 0.0
2014-Aug-22 02:33N 29°45' W 095°06'0 0.0
2014-Aug-22 01:33N 29°45' W 095°06'0 0.0
2014-Aug-22 00:33N 29°45' W 095°06'0 0.0
2014-Aug-21 23:33N 29°45' W 095°06'0 0.0
2014-Aug-21 22:32N 29°45' W 095°06'0 0.0
2014-Aug-21 21:33N 29°45' W 095°06'0 0.0
2014-Aug-21 20:33N 29°45' W 095°06'0 0.0
2014-Aug-21 19:33N 29°45' W 095°06'0 0.0
2014-Aug-21 18:33N 29°45' W 095°06'0 0.0
2014-Aug-21 17:32N 29°45' W 095°06'0 0.0
2014-Aug-21 16:32N 29°45' W 095°06'0 0.0
2014-Aug-21 15:32N 29°45' W 095°06'0 0.0
2014-Aug-21 14:33N 29°45' W 095°06'0 0.0
2014-Aug-21 13:32N 29°45' W 095°06'0 0.0
2014-Aug-21 12:33N 29°45' W 095°06'0 0.0
2014-Aug-21 11:33N 29°45' W 095°06'1 0.7
2014-Aug-21 10:33N 29°45' W 095°06'1 1.0
2014-Aug-21 09:33N 29°46' W 095°07'0 0.1
2014-Aug-21 08:33N 29°46' W 095°07'0 0.0
2014-Aug-21 07:33N 29°46' W 095°07'0 0.0
2014-Aug-21 06:33N 29°46' W 095°07'0 0.0
2014-Aug-21 05:33N 29°46' W 095°07'0 0.0
2014-Aug-21 04:33N 29°46' W 095°07'0 0.0
2014-Aug-21 03:33N 29°46' W 095°07'0 0.0
2014-Aug-21 02:33N 29°46' W 095°07'0 0.0
2014-Aug-21 01:33N 29°46' W 095°07'0 0.0
2014-Aug-21 00:33N 29°46' W 095°07'0 0.0
2014-Aug-20 23:33N 29°46' W 095°07'0 0.0
2014-Aug-20 22:33N 29°46' W 095°07'0 0.0
2014-Aug-20 21:33N 29°46' W 095°07'0 0.0
2014-Aug-20 20:33N 29°46' W 095°07'1 1.2
2014-Aug-20 19:33N 29°45' W 095°07'1 1.2
2014-Aug-20 18:33N 29°46' W 095°07'0 0.0
2014-Aug-20 17:33N 29°46' W 095°07'0 0.0
2014-Aug-20 16:33N 29°46' W 095°07'1 1.1
2014-Aug-20 15:33N 29°46' W 095°05'2 2.2
2014-Aug-20 14:33N 29°48' W 095°04'0 0.0
2014-Aug-20 13:33N 29°48' W 095°04'0 0.0
2014-Aug-20 12:33N 29°48' W 095°04'0 0.0
2014-Aug-20 11:33N 29°48' W 095°04'0 0.0
2014-Aug-20 10:33N 29°48' W 095°04'0 0.0
2014-Aug-20 09:33N 29°48' W 095°04'0 0.0
2014-Aug-20 08:33N 29°48' W 095°04'0 0.0
2014-Aug-20 07:33N 29°48' W 095°04'0 0.0
2014-Aug-20 06:33N 29°48' W 095°04'0 0.0
2014-Aug-20 05:33N 29°48' W 095°04'0 0.0
2014-Aug-20 04:33N 29°48' W 095°04'0 0.0
2014-Aug-20 03:33N 29°48' W 095°04'0 0.0
2014-Aug-20 02:33N 29°48' W 095°04'0 0.0
2014-Aug-20 00:33N 29°48' W 095°04'0 0.0
2014-Aug-19 23:33N 29°48' W 095°04'0 0.0
2014-Aug-19 22:33N 29°48' W 095°04'  

Dump ship's entire track history